sensor_id;sensor_type;location;lat;lon;timestamp;P1;durP1;ratioP1;P2;durP2;ratioP2
25531;SDS011;13429;48.816;9.118;2022-12-07T00:01:30;14.77;;;9.80;;
25531;SDS011;13429;48.816;9.118;2022-12-07T00:03:58;13.63;;;9.30;;
25531;SDS011;13429;48.816;9.118;2022-12-07T00:06:38;12.57;;;8.40;;
25531;SDS011;13429;48.816;9.118;2022-12-07T00:09:05;14.02;;;9.30;;
25531;SDS011;13429;48.816;9.118;2022-12-07T00:11:31;20.52;;;10.93;;
25531;SDS011;13429;48.816;9.118;2022-12-07T00:13:58;12.95;;;8.95;;
25531;SDS011;13429;48.816;9.118;2022-12-07T00:16:26;15.45;;;8.88;;
25531;SDS011;13429;48.816;9.118;2022-12-07T00:18:52;17.45;;;9.40;;
25531;SDS011;13429;48.816;9.118;2022-12-07T00:21:22;15.40;;;10.25;;
25531;SDS011;13429;48.816;9.118;2022-12-07T00:23:48;16.05;;;10.00;;
25531;SDS011;13429;48.816;9.118;2022-12-07T00:26:28;16.02;;;9.20;;
25531;SDS011;13429;48.816;9.118;2022-12-07T00:28:58;21.50;;;9.50;;
25531;SDS011;13429;48.816;9.118;2022-12-07T00:31:29;13.15;;;8.98;;
25531;SDS011;13429;48.816;9.118;2022-12-07T00:33:55;15.38;;;10.20;;
25531;SDS011;13429;48.816;9.118;2022-12-07T00:36:22;18.13;;;11.63;;
25531;SDS011;13429;48.816;9.118;2022-12-07T00:38:48;21.80;;;12.52;;
25531;SDS011;13429;48.816;9.118;2022-12-07T00:41:24;20.38;;;12.10;;
25531;SDS011;13429;48.816;9.118;2022-12-07T00:43:50;19.73;;;11.23;;
25531;SDS011;13429;48.816;9.118;2022-12-07T00:46:16;15.38;;;10.25;;
25531;SDS011;13429;48.816;9.118;2022-12-07T00:48:42;16.45;;;10.48;;
25531;SDS011;13429;48.816;9.118;2022-12-07T00:51:09;15.15;;;9.70;;
25531;SDS011;13429;48.816;9.118;2022-12-07T00:53:36;15.57;;;10.10;;
25531;SDS011;13429;48.816;9.118;2022-12-07T00:56:09;16.85;;;11.43;;
25531;SDS011;13429;48.816;9.118;2022-12-07T00:58:35;17.15;;;10.68;;
25531;SDS011;13429;48.816;9.118;2022-12-07T01:01:01;17.67;;;10.80;;
25531;SDS011;13429;48.816;9.118;2022-12-07T01:03:28;17.17;;;10.63;;
25531;SDS011;13429;48.816;9.118;2022-12-07T01:05:54;19.15;;;11.73;;
25531;SDS011;13429;48.816;9.118;2022-12-07T01:08:21;19.35;;;10.75;;
25531;SDS011;13429;48.816;9.118;2022-12-07T01:10:47;16.73;;;9.60;;
25531;SDS011;13429;48.816;9.118;2022-12-07T01:13:13;16.25;;;10.50;;
25531;SDS011;13429;48.816;9.118;2022-12-07T01:15:40;20.35;;;10.73;;
25531;SDS011;13429;48.816;9.118;2022-12-07T01:18:06;17.05;;;10.20;;
25531;SDS011;13429;48.816;9.118;2022-12-07T01:20:32;14.50;;;9.20;;
25531;SDS011;13429;48.816;9.118;2022-12-07T01:22:58;15.88;;;10.07;;
25531;SDS011;13429;48.816;9.118;2022-12-07T01:25:24;14.60;;;9.25;;
25531;SDS011;13429;48.816;9.118;2022-12-07T01:27:50;13.30;;;8.82;;
25531;SDS011;13429;48.816;9.118;2022-12-07T01:30:16;17.10;;;10.07;;
25531;SDS011;13429;48.816;9.118;2022-12-07T01:32:42;16.25;;;9.43;;
25531;SDS011;13429;48.816;9.118;2022-12-07T01:35:08;16.20;;;9.68;;
25531;SDS011;13429;48.816;9.118;2022-12-07T01:37:37;15.73;;;9.77;;
25531;SDS011;13429;48.816;9.118;2022-12-07T01:40:05;16.02;;;9.35;;
25531;SDS011;13429;48.816;9.118;2022-12-07T01:42:31;14.70;;;9.30;;
25531;SDS011;13429;48.816;9.118;2022-12-07T01:47:42;16.83;;;10.13;;
25531;SDS011;13429;48.816;9.118;2022-12-07T01:50:09;18.75;;;10.30;;
25531;SDS011;13429;48.816;9.118;2022-12-07T01:52:35;14.32;;;9.35;;
25531;SDS011;13429;48.816;9.118;2022-12-07T01:55:09;20.30;;;10.13;;
25531;SDS011;13429;48.816;9.118;2022-12-07T01:57:37;14.93;;;8.75;;
25531;SDS011;13429;48.816;9.118;2022-12-07T02:00:05;15.77;;;10.25;;
25531;SDS011;13429;48.816;9.118;2022-12-07T02:02:36;17.90;;;10.85;;
25531;SDS011;13429;48.816;9.118;2022-12-07T02:05:04;19.23;;;10.88;;
25531;SDS011;13429;48.816;9.118;2022-12-07T02:07:31;20.00;;;10.27;;
25531;SDS011;13429;48.816;9.118;2022-12-07T02:10:11;16.80;;;9.82;;
25531;SDS011;13429;48.816;9.118;2022-12-07T02:12:37;16.80;;;10.38;;
25531;SDS011;13429;48.816;9.118;2022-12-07T02:15:03;19.27;;;9.63;;
25531;SDS011;13429;48.816;9.118;2022-12-07T02:17:36;15.93;;;9.10;;
25531;SDS011;13429;48.816;9.118;2022-12-07T02:28:07;18.20;;;9.77;;
25531;SDS011;13429;48.816;9.118;2022-12-07T02:30:40;14.50;;;9.20;;
25531;SDS011;13429;48.816;9.118;2022-12-07T02:33:13;13.38;;;8.88;;
25531;SDS011;13429;48.816;9.118;2022-12-07T02:35:48;17.08;;;9.85;;
25531;SDS011;13429;48.816;9.118;2022-12-07T02:43:25;13.68;;;8.73;;
25531;SDS011;13429;48.816;9.118;2022-12-07T02:45:51;14.98;;;8.75;;
25531;SDS011;13429;48.816;9.118;2022-12-07T02:51:22;13.43;;;8.80;;
25531;SDS011;13429;48.816;9.118;2022-12-07T02:53:48;14.27;;;9.20;;
25531;SDS011;13429;48.816;9.118;2022-12-07T02:56:29;12.57;;;8.18;;
25531;SDS011;13429;48.816;9.118;2022-12-07T02:59:18;16.40;;;9.98;;
25531;SDS011;13429;48.816;9.118;2022-12-07T03:02:00;13.07;;;9.05;;
25531;SDS011;13429;48.816;9.118;2022-12-07T03:12:42;14.20;;;9.07;;
25531;SDS011;13429;48.816;9.118;2022-12-07T03:15:14;12.52;;;8.98;;
25531;SDS011;13429;48.816;9.118;2022-12-07T03:17:42;14.63;;;9.18;;
25531;SDS011;13429;48.816;9.118;2022-12-07T03:20:10;17.35;;;10.02;;
25531;SDS011;13429;48.816;9.118;2022-12-07T03:22:37;16.63;;;9.30;;
25531;SDS011;13429;48.816;9.118;2022-12-07T03:25:06;16.60;;;9.75;;
25531;SDS011;13429;48.816;9.118;2022-12-07T03:27:37;14.90;;;9.30;;
25531;SDS011;13429;48.816;9.118;2022-12-07T03:30:06;13.73;;;8.52;;
25531;SDS011;13429;48.816;9.118;2022-12-07T03:32:43;15.70;;;8.98;;
25531;SDS011;13429;48.816;9.118;2022-12-07T03:35:12;14.68;;;8.50;;
25531;SDS011;13429;48.816;9.118;2022-12-07T03:37:46;15.40;;;9.13;;
25531;SDS011;13429;48.816;9.118;2022-12-07T03:42:59;11.52;;;7.60;;
25531;SDS011;13429;48.816;9.118;2022-12-07T03:45:30;13.38;;;8.27;;
25531;SDS011;13429;48.816;9.118;2022-12-07T03:50:48;15.95;;;9.05;;
25531;SDS011;13429;48.816;9.118;2022-12-07T03:53:18;16.10;;;9.30;;
25531;SDS011;13429;48.816;9.118;2022-12-07T03:55:46;12.60;;;8.57;;
25531;SDS011;13429;48.816;9.118;2022-12-07T03:58:14;15.85;;;9.02;;
25531;SDS011;13429;48.816;9.118;2022-12-07T04:00:42;14.20;;;8.80;;
25531;SDS011;13429;48.816;9.118;2022-12-07T04:03:08;15.88;;;9.35;;
25531;SDS011;13429;48.816;9.118;2022-12-07T04:05:34;16.67;;;9.68;;
25531;SDS011;13429;48.816;9.118;2022-12-07T04:08:00;14.73;;;9.32;;
25531;SDS011;13429;48.816;9.118;2022-12-07T04:10:26;14.77;;;8.80;;
25531;SDS011;13429;48.816;9.118;2022-12-07T04:12:52;16.67;;;8.55;;
25531;SDS011;13429;48.816;9.118;2022-12-07T04:15:18;16.17;;;9.32;;
25531;SDS011;13429;48.816;9.118;2022-12-07T04:17:44;16.73;;;10.23;;
25531;SDS011;13429;48.816;9.118;2022-12-07T04:20:10;15.27;;;8.90;;
25531;SDS011;13429;48.816;9.118;2022-12-07T04:22:36;13.65;;;7.88;;
25531;SDS011;13429;48.816;9.118;2022-12-07T04:25:03;15.25;;;8.77;;
25531;SDS011;13429;48.816;9.118;2022-12-07T04:27:29;15.40;;;8.40;;
25531;SDS011;13429;48.816;9.118;2022-12-07T04:29:54;10.30;;;6.70;;
25531;SDS011;13429;48.816;9.118;2022-12-07T04:32:21;10.93;;;6.53;;
25531;SDS011;13429;48.816;9.118;2022-12-07T04:34:47;7.78;;;5.35;;
25531;SDS011;13429;48.816;9.118;2022-12-07T04:37:13;8.07;;;4.70;;
25531;SDS011;13429;48.816;9.118;2022-12-07T04:39:39;7.35;;;4.63;;
25531;SDS011;13429;48.816;9.118;2022-12-07T04:42:05;6.80;;;4.20;;
25531;SDS011;13429;48.816;9.118;2022-12-07T04:44:31;6.88;;;4.55;;
25531;SDS011;13429;48.816;9.118;2022-12-07T04:46:57;7.20;;;4.53;;
25531;SDS011;13429;48.816;9.118;2022-12-07T04:49:24;7.28;;;4.60;;
25531;SDS011;13429;48.816;9.118;2022-12-07T04:51:50;10.20;;;5.07;;
25531;SDS011;13429;48.816;9.118;2022-12-07T04:54:16;8.48;;;5.13;;
25531;SDS011;13429;48.816;9.118;2022-12-07T04:56:42;10.70;;;4.70;;
25531;SDS011;13429;48.816;9.118;2022-12-07T04:59:08;10.38;;;4.78;;
25531;SDS011;13429;48.816;9.118;2022-12-07T05:01:35;6.47;;;4.13;;
25531;SDS011;13429;48.816;9.118;2022-12-07T05:04:01;7.78;;;4.53;;
25531;SDS011;13429;48.816;9.118;2022-12-07T05:06:27;10.63;;;5.13;;
25531;SDS011;13429;48.816;9.118;2022-12-07T05:08:53;8.32;;;4.97;;
25531;SDS011;13429;48.816;9.118;2022-12-07T05:11:19;6.88;;;4.20;;
25531;SDS011;13429;48.816;9.118;2022-12-07T05:14:03;7.97;;;4.55;;
25531;SDS011;13429;48.816;9.118;2022-12-07T05:16:30;7.40;;;4.53;;
25531;SDS011;13429;48.816;9.118;2022-12-07T05:18:56;10.70;;;5.80;;
25531;SDS011;13429;48.816;9.118;2022-12-07T05:21:22;10.10;;;5.75;;
25531;SDS011;13429;48.816;9.118;2022-12-07T05:23:48;12.50;;;7.40;;
25531;SDS011;13429;48.816;9.118;2022-12-07T05:26:14;11.65;;;7.65;;
25531;SDS011;13429;48.816;9.118;2022-12-07T05:28:40;11.20;;;7.88;;
25531;SDS011;13429;48.816;9.118;2022-12-07T05:31:06;13.25;;;8.18;;
25531;SDS011;13429;48.816;9.118;2022-12-07T05:33:32;12.57;;;8.05;;
25531;SDS011;13429;48.816;9.118;2022-12-07T05:35:57;11.63;;;6.63;;
25531;SDS011;13429;48.816;9.118;2022-12-07T05:38:23;11.77;;;6.80;;
25531;SDS011;13429;48.816;9.118;2022-12-07T05:40:50;13.13;;;7.45;;
25531;SDS011;13429;48.816;9.118;2022-12-07T05:43:16;14.75;;;7.60;;
25531;SDS011;13429;48.816;9.118;2022-12-07T05:45:42;14.90;;;7.55;;
25531;SDS011;13429;48.816;9.118;2022-12-07T05:48:08;12.85;;;8.02;;
25531;SDS011;13429;48.816;9.118;2022-12-07T05:50:33;15.93;;;7.72;;
25531;SDS011;13429;48.816;9.118;2022-12-07T05:52:59;13.40;;;7.57;;
25531;SDS011;13429;48.816;9.118;2022-12-07T05:55:25;14.73;;;7.68;;
25531;SDS011;13429;48.816;9.118;2022-12-07T05:57:51;14.90;;;7.65;;
25531;SDS011;13429;48.816;9.118;2022-12-07T06:00:36;12.95;;;7.85;;
25531;SDS011;13429;48.816;9.118;2022-12-07T06:03:02;12.43;;;7.32;;
25531;SDS011;13429;48.816;9.118;2022-12-07T06:05:28;13.40;;;7.55;;
25531;SDS011;13429;48.816;9.118;2022-12-07T06:07:54;11.02;;;7.32;;
25531;SDS011;13429;48.816;9.118;2022-12-07T06:10:20;13.48;;;8.05;;
25531;SDS011;13429;48.816;9.118;2022-12-07T06:12:46;12.00;;;7.65;;
25531;SDS011;13429;48.816;9.118;2022-12-07T06:15:12;12.55;;;7.68;;
25531;SDS011;13429;48.816;9.118;2022-12-07T06:17:38;13.80;;;7.50;;
25531;SDS011;13429;48.816;9.118;2022-12-07T06:20:05;14.27;;;8.10;;
25531;SDS011;13429;48.816;9.118;2022-12-07T06:22:31;11.60;;;7.20;;
25531;SDS011;13429;48.816;9.118;2022-12-07T06:24:57;11.02;;;6.95;;
25531;SDS011;13429;48.816;9.118;2022-12-07T06:27:23;11.95;;;7.10;;
25531;SDS011;13429;48.816;9.118;2022-12-07T06:29:48;11.43;;;7.03;;
25531;SDS011;13429;48.816;9.118;2022-12-07T06:32:14;13.15;;;7.97;;
25531;SDS011;13429;48.816;9.118;2022-12-07T06:34:41;13.45;;;7.28;;
25531;SDS011;13429;48.816;9.118;2022-12-07T06:37:07;11.60;;;6.97;;
25531;SDS011;13429;48.816;9.118;2022-12-07T06:39:33;13.93;;;7.32;;
25531;SDS011;13429;48.816;9.118;2022-12-07T06:41:59;12.88;;;6.88;;
25531;SDS011;13429;48.816;9.118;2022-12-07T06:44:25;15.70;;;6.47;;
25531;SDS011;13429;48.816;9.118;2022-12-07T06:46:51;12.02;;;6.40;;
25531;SDS011;13429;48.816;9.118;2022-12-07T06:49:17;12.10;;;6.78;;
25531;SDS011;13429;48.816;9.118;2022-12-07T06:51:43;12.23;;;6.53;;
25531;SDS011;13429;48.816;9.118;2022-12-07T06:54:09;13.13;;;6.47;;
25531;SDS011;13429;48.816;9.118;2022-12-07T06:56:36;10.95;;;6.50;;
25531;SDS011;13429;48.816;9.118;2022-12-07T06:59:02;10.60;;;6.10;;
25531;SDS011;13429;48.816;9.118;2022-12-07T07:01:28;9.02;;;5.75;;
25531;SDS011;13429;48.816;9.118;2022-12-07T07:03:54;11.50;;;6.72;;
25531;SDS011;13429;48.816;9.118;2022-12-07T07:06:20;9.25;;;5.80;;
25531;SDS011;13429;48.816;9.118;2022-12-07T07:08:46;11.82;;;6.32;;
25531;SDS011;13429;48.816;9.118;2022-12-07T07:11:12;8.50;;;6.13;;
25531;SDS011;13429;48.816;9.118;2022-12-07T07:13:38;11.45;;;5.97;;
25531;SDS011;13429;48.816;9.118;2022-12-07T07:16:04;11.20;;;6.72;;
25531;SDS011;13429;48.816;9.118;2022-12-07T07:18:31;9.73;;;5.93;;
25531;SDS011;13429;48.816;9.118;2022-12-07T07:20:57;10.00;;;5.30;;
25531;SDS011;13429;48.816;9.118;2022-12-07T07:23:23;8.93;;;5.55;;
25531;SDS011;13429;48.816;9.118;2022-12-07T07:25:49;11.88;;;5.70;;
25531;SDS011;13429;48.816;9.118;2022-12-07T07:28:15;8.52;;;5.05;;
25531;SDS011;13429;48.816;9.118;2022-12-07T07:30:41;8.30;;;4.75;;
25531;SDS011;13429;48.816;9.118;2022-12-07T07:33:08;10.73;;;5.60;;
25531;SDS011;13429;48.816;9.118;2022-12-07T07:35:34;9.75;;;5.85;;
25531;SDS011;13429;48.816;9.118;2022-12-07T07:38:01;9.48;;;5.38;;
25531;SDS011;13429;48.816;9.118;2022-12-07T07:40:27;8.40;;;5.25;;
25531;SDS011;13429;48.816;9.118;2022-12-07T07:42:56;8.60;;;5.75;;
25531;SDS011;13429;48.816;9.118;2022-12-07T07:45:22;9.68;;;5.57;;
25531;SDS011;13429;48.816;9.118;2022-12-07T07:47:48;9.60;;;5.55;;
25531;SDS011;13429;48.816;9.118;2022-12-07T07:50:15;10.05;;;5.15;;
25531;SDS011;13429;48.816;9.118;2022-12-07T07:52:41;10.20;;;6.32;;
25531;SDS011;13429;48.816;9.118;2022-12-07T07:55:08;11.10;;;5.43;;
25531;SDS011;13429;48.816;9.118;2022-12-07T07:57:37;8.85;;;5.10;;
25531;SDS011;13429;48.816;9.118;2022-12-07T08:00:05;8.52;;;4.55;;
25531;SDS011;13429;48.816;9.118;2022-12-07T08:02:31;11.60;;;6.10;;
25531;SDS011;13429;48.816;9.118;2022-12-07T08:04:57;8.52;;;5.20;;
25531;SDS011;13429;48.816;9.118;2022-12-07T08:07:23;8.95;;;5.30;;
25531;SDS011;13429;48.816;9.118;2022-12-07T08:09:49;13.27;;;5.32;;
25531;SDS011;13429;48.816;9.118;2022-12-07T08:12:15;11.43;;;5.57;;
25531;SDS011;13429;48.816;9.118;2022-12-07T08:14:41;11.60;;;5.22;;
25531;SDS011;13429;48.816;9.118;2022-12-07T08:17:07;9.88;;;5.80;;
25531;SDS011;13429;48.816;9.118;2022-12-07T08:19:33;8.98;;;5.53;;
25531;SDS011;13429;48.816;9.118;2022-12-07T08:21:59;8.40;;;5.50;;
25531;SDS011;13429;48.816;9.118;2022-12-07T08:24:25;8.10;;;4.43;;
25531;SDS011;13429;48.816;9.118;2022-12-07T08:26:52;9.23;;;5.40;;
25531;SDS011;13429;48.816;9.118;2022-12-07T08:29:18;10.98;;;6.18;;
25531;SDS011;13429;48.816;9.118;2022-12-07T08:31:44;9.45;;;5.00;;
25531;SDS011;13429;48.816;9.118;2022-12-07T08:34:10;10.25;;;5.75;;
25531;SDS011;13429;48.816;9.118;2022-12-07T08:36:36;10.45;;;4.95;;
25531;SDS011;13429;48.816;9.118;2022-12-07T08:39:02;10.82;;;5.40;;
25531;SDS011;13429;48.816;9.118;2022-12-07T08:41:28;8.50;;;5.28;;
25531;SDS011;13429;48.816;9.118;2022-12-07T08:43:54;8.05;;;5.03;;
25531;SDS011;13429;48.816;9.118;2022-12-07T08:48:50;9.65;;;4.93;;
25531;SDS011;13429;48.816;9.118;2022-12-07T08:51:17;8.13;;;5.10;;
25531;SDS011;13429;48.816;9.118;2022-12-07T08:53:43;12.52;;;5.00;;
25531;SDS011;13429;48.816;9.118;2022-12-07T08:56:09;7.88;;;4.65;;
25531;SDS011;13429;48.816;9.118;2022-12-07T08:58:36;8.05;;;4.22;;
25531;SDS011;13429;48.816;9.118;2022-12-07T09:01:03;7.93;;;4.80;;
25531;SDS011;13429;48.816;9.118;2022-12-07T09:03:29;8.88;;;4.78;;
25531;SDS011;13429;48.816;9.118;2022-12-07T09:05:55;7.80;;;4.80;;
25531;SDS011;13429;48.816;9.118;2022-12-07T09:08:22;8.77;;;5.45;;
25531;SDS011;13429;48.816;9.118;2022-12-07T09:10:49;9.40;;;5.15;;
25531;SDS011;13429;48.816;9.118;2022-12-07T09:13:15;9.60;;;5.68;;
25531;SDS011;13429;48.816;9.118;2022-12-07T09:15:41;9.48;;;5.00;;
25531;SDS011;13429;48.816;9.118;2022-12-07T09:18:06;8.38;;;4.63;;
25531;SDS011;13429;48.816;9.118;2022-12-07T09:20:32;7.00;;;3.55;;
25531;SDS011;13429;48.816;9.118;2022-12-07T09:22:58;6.32;;;3.75;;
25531;SDS011;13429;48.816;9.118;2022-12-07T09:25:24;8.68;;;4.10;;
25531;SDS011;13429;48.816;9.118;2022-12-07T09:27:57;7.65;;;5.05;;
25531;SDS011;13429;48.816;9.118;2022-12-07T09:30:24;8.60;;;4.88;;
25531;SDS011;13429;48.816;9.118;2022-12-07T09:32:52;9.75;;;4.88;;
25531;SDS011;13429;48.816;9.118;2022-12-07T09:35:18;9.50;;;4.82;;
25531;SDS011;13429;48.816;9.118;2022-12-07T09:37:44;7.28;;;4.50;;
25531;SDS011;13429;48.816;9.118;2022-12-07T09:40:10;7.32;;;4.18;;
25531;SDS011;13429;48.816;9.118;2022-12-07T09:42:37;7.28;;;4.15;;
25531;SDS011;13429;48.816;9.118;2022-12-07T09:45:05;6.60;;;4.03;;
25531;SDS011;13429;48.816;9.118;2022-12-07T09:47:31;5.13;;;3.47;;
25531;SDS011;13429;48.816;9.118;2022-12-07T09:50:06;5.78;;;3.78;;
25531;SDS011;13429;48.816;9.118;2022-12-07T09:52:33;7.22;;;4.13;;
25531;SDS011;13429;48.816;9.118;2022-12-07T09:54:59;6.70;;;3.92;;
25531;SDS011;13429;48.816;9.118;2022-12-07T09:57:27;8.20;;;4.93;;
25531;SDS011;13429;48.816;9.118;2022-12-07T09:59:55;6.68;;;3.90;;
25531;SDS011;13429;48.816;9.118;2022-12-07T10:02:24;6.90;;;4.30;;
25531;SDS011;13429;48.816;9.118;2022-12-07T10:04:51;7.60;;;4.75;;
25531;SDS011;13429;48.816;9.118;2022-12-07T10:07:17;9.18;;;4.95;;
25531;SDS011;13429;48.816;9.118;2022-12-07T10:09:43;9.02;;;4.70;;
25531;SDS011;13429;48.816;9.118;2022-12-07T10:12:10;6.68;;;3.80;;
25531;SDS011;13429;48.816;9.118;2022-12-07T10:14:48;7.95;;;3.95;;
25531;SDS011;13429;48.816;9.118;2022-12-07T10:19:44;8.13;;;4.65;;
25531;SDS011;13429;48.816;9.118;2022-12-07T10:22:14;8.45;;;4.45;;
25531;SDS011;13429;48.816;9.118;2022-12-07T10:24:41;8.13;;;4.53;;
25531;SDS011;13429;48.816;9.118;2022-12-07T10:29:46;9.75;;;5.10;;
25531;SDS011;13429;48.816;9.118;2022-12-07T10:34:39;7.20;;;4.10;;
25531;SDS011;13429;48.816;9.118;2022-12-07T10:37:07;7.28;;;4.65;;
25531;SDS011;13429;48.816;9.118;2022-12-07T10:39:53;7.95;;;4.68;;
25531;SDS011;13429;48.816;9.118;2022-12-07T10:42:24;7.72;;;4.28;;
25531;SDS011;13429;48.816;9.118;2022-12-07T10:45:06;6.75;;;3.72;;
25531;SDS011;13429;48.816;9.118;2022-12-07T10:58:21;6.03;;;3.03;;
25531;SDS011;13429;48.816;9.118;2022-12-07T11:00:53;5.32;;;3.10;;
25531;SDS011;13429;48.816;9.118;2022-12-07T11:03:23;7.75;;;4.40;;
25531;SDS011;13429;48.816;9.118;2022-12-07T11:06:00;6.53;;;3.70;;
25531;SDS011;13429;48.816;9.118;2022-12-07T11:08:38;6.68;;;3.67;;
25531;SDS011;13429;48.816;9.118;2022-12-07T11:16:14;4.97;;;2.80;;
25531;SDS011;13429;48.816;9.118;2022-12-07T11:26:41;6.90;;;3.22;;
25531;SDS011;13429;48.816;9.118;2022-12-07T11:29:17;4.65;;;3.08;;
25531;SDS011;13429;48.816;9.118;2022-12-07T11:34:47;11.00;;;4.68;;
25531;SDS011;13429;48.816;9.118;2022-12-07T11:37:15;9.68;;;4.90;;
25531;SDS011;13429;48.816;9.118;2022-12-07T11:39:50;11.13;;;5.75;;
25531;SDS011;13429;48.816;9.118;2022-12-07T11:42:30;7.82;;;5.05;;
25531;SDS011;13429;48.816;9.118;2022-12-07T11:45:01;10.70;;;5.97;;
25531;SDS011;13429;48.816;9.118;2022-12-07T11:53:05;11.63;;;6.75;;
25531;SDS011;13429;48.816;9.118;2022-12-07T11:55:44;11.73;;;7.43;;
25531;SDS011;13429;48.816;9.118;2022-12-07T11:58:33;10.20;;;6.53;;
25531;SDS011;13429;48.816;9.118;2022-12-07T12:01:50;9.43;;;6.47;;
25531;SDS011;13429;48.816;9.118;2022-12-07T12:06:32;11.05;;;7.18;;
25531;SDS011;13429;48.816;9.118;2022-12-07T12:09:05;12.63;;;7.50;;
25531;SDS011;13429;48.816;9.118;2022-12-07T12:21:40;10.95;;;6.38;;
25531;SDS011;13429;48.816;9.118;2022-12-07T12:24:11;8.52;;;5.95;;
25531;SDS011;13429;48.816;9.118;2022-12-07T12:26:41;9.30;;;5.75;;
25531;SDS011;13429;48.816;9.118;2022-12-07T12:32:11;11.98;;;6.43;;
25531;SDS011;13429;48.816;9.118;2022-12-07T12:34:39;10.52;;;6.30;;
25531;SDS011;13429;48.816;9.118;2022-12-07T12:45:32;9.45;;;6.00;;
25531;SDS011;13429;48.816;9.118;2022-12-07T12:52:51;8.98;;;6.20;;
25531;SDS011;13429;48.816;9.118;2022-12-07T12:55:18;11.20;;;6.40;;
25531;SDS011;13429;48.816;9.118;2022-12-07T12:57:46;7.78;;;5.75;;
25531;SDS011;13429;48.816;9.118;2022-12-07T13:00:22;7.97;;;5.20;;
25531;SDS011;13429;48.816;9.118;2022-12-07T13:15:38;17.08;;;14.10;;
25531;SDS011;13429;48.816;9.118;2022-12-07T13:20:44;10.93;;;6.00;;
25531;SDS011;13429;48.816;9.118;2022-12-07T13:23:12;8.20;;;5.70;;
25531;SDS011;13429;48.816;9.118;2022-12-07T13:25:44;11.52;;;6.68;;
25531;SDS011;13429;48.816;9.118;2022-12-07T13:28:15;9.18;;;6.43;;
25531;SDS011;13429;48.816;9.118;2022-12-07T13:33:08;14.25;;;6.30;;
25531;SDS011;13429;48.816;9.118;2022-12-07T13:35:36;10.10;;;7.00;;
25531;SDS011;13429;48.816;9.118;2022-12-07T13:38:13;10.27;;;6.25;;
25531;SDS011;13429;48.816;9.118;2022-12-07T13:40:41;13.25;;;6.28;;
25531;SDS011;13429;48.816;9.118;2022-12-07T13:43:14;12.25;;;6.72;;
25531;SDS011;13429;48.816;9.118;2022-12-07T13:45:41;12.05;;;5.32;;
25531;SDS011;13429;48.816;9.118;2022-12-07T13:50:58;17.23;;;8.10;;
25531;SDS011;13429;48.816;9.118;2022-12-07T13:53:26;13.25;;;7.15;;
25531;SDS011;13429;48.816;9.118;2022-12-07T13:55:55;14.35;;;7.32;;
25531;SDS011;13429;48.816;9.118;2022-12-07T13:58:22;15.88;;;7.40;;
25531;SDS011;13429;48.816;9.118;2022-12-07T14:00:48;13.90;;;7.65;;
25531;SDS011;13429;48.816;9.118;2022-12-07T14:05:43;9.65;;;5.80;;
25531;SDS011;13429;48.816;9.118;2022-12-07T14:13:24;13.80;;;6.43;;
25531;SDS011;13429;48.816;9.118;2022-12-07T14:15:50;12.43;;;6.97;;
25531;SDS011;13429;48.816;9.118;2022-12-07T14:18:30;10.15;;;6.78;;
25531;SDS011;13429;48.816;9.118;2022-12-07T14:21:03;11.27;;;7.13;;
25531;SDS011;13429;48.816;9.118;2022-12-07T14:23:29;10.98;;;6.50;;
25531;SDS011;13429;48.816;9.118;2022-12-07T14:26:04;11.35;;;5.93;;
25531;SDS011;13429;48.816;9.118;2022-12-07T14:28:33;14.07;;;7.63;;
25531;SDS011;13429;48.816;9.118;2022-12-07T14:30:59;12.43;;;7.25;;
25531;SDS011;13429;48.816;9.118;2022-12-07T14:33:26;11.77;;;7.35;;
25531;SDS011;13429;48.816;9.118;2022-12-07T14:35:52;11.38;;;6.43;;
25531;SDS011;13429;48.816;9.118;2022-12-07T14:38:20;12.45;;;6.43;;
25531;SDS011;13429;48.816;9.118;2022-12-07T14:40:46;9.18;;;6.10;;
25531;SDS011;13429;48.816;9.118;2022-12-07T14:43:13;12.20;;;6.68;;
25531;SDS011;13429;48.816;9.118;2022-12-07T14:45:40;14.82;;;7.18;;
25531;SDS011;13429;48.816;9.118;2022-12-07T14:48:13;12.80;;;6.88;;
25531;SDS011;13429;48.816;9.118;2022-12-07T14:50:49;14.50;;;6.88;;
25531;SDS011;13429;48.816;9.118;2022-12-07T14:53:17;25.38;;;14.18;;
25531;SDS011;13429;48.816;9.118;2022-12-07T14:55:43;14.55;;;8.23;;
25531;SDS011;13429;48.816;9.118;2022-12-07T14:58:16;11.60;;;6.70;;
25531;SDS011;13429;48.816;9.118;2022-12-07T15:00:42;9.77;;;6.90;;
25531;SDS011;13429;48.816;9.118;2022-12-07T15:03:08;12.65;;;7.70;;
25531;SDS011;13429;48.816;9.118;2022-12-07T15:05:34;17.45;;;10.18;;
25531;SDS011;13429;48.816;9.118;2022-12-07T15:08:00;13.43;;;8.30;;
25531;SDS011;13429;48.816;9.118;2022-12-07T15:10:27;12.25;;;7.75;;
25531;SDS011;13429;48.816;9.118;2022-12-07T15:12:57;11.45;;;7.30;;
25531;SDS011;13429;48.816;9.118;2022-12-07T15:15:43;10.32;;;6.05;;
25531;SDS011;13429;48.816;9.118;2022-12-07T15:18:09;14.60;;;6.50;;
25531;SDS011;13429;48.816;9.118;2022-12-07T15:20:35;12.18;;;7.10;;
25531;SDS011;13429;48.816;9.118;2022-12-07T15:23:01;12.82;;;7.20;;
25531;SDS011;13429;48.816;9.118;2022-12-07T15:25:27;12.93;;;7.85;;
25531;SDS011;13429;48.816;9.118;2022-12-07T15:27:53;15.57;;;8.50;;
25531;SDS011;13429;48.816;9.118;2022-12-07T15:30:19;15.38;;;8.48;;
25531;SDS011;13429;48.816;9.118;2022-12-07T15:32:48;14.55;;;8.68;;
25531;SDS011;13429;48.816;9.118;2022-12-07T15:35:14;15.15;;;8.60;;
25531;SDS011;13429;48.816;9.118;2022-12-07T15:37:40;15.60;;;9.20;;
25531;SDS011;13429;48.816;9.118;2022-12-07T15:40:06;14.07;;;8.35;;
25531;SDS011;13429;48.816;9.118;2022-12-07T15:42:33;18.42;;;9.50;;
25531;SDS011;13429;48.816;9.118;2022-12-07T15:44:58;15.77;;;7.70;;
25531;SDS011;13429;48.816;9.118;2022-12-07T15:47:41;14.93;;;8.73;;
25531;SDS011;13429;48.816;9.118;2022-12-07T15:50:08;14.52;;;8.77;;
25531;SDS011;13429;48.816;9.118;2022-12-07T15:52:35;16.98;;;9.77;;
25531;SDS011;13429;48.816;9.118;2022-12-07T15:55:01;19.73;;;10.30;;
25531;SDS011;13429;48.816;9.118;2022-12-07T15:57:30;23.40;;;12.80;;
25531;SDS011;13429;48.816;9.118;2022-12-07T15:59:56;23.05;;;13.02;;
25531;SDS011;13429;48.816;9.118;2022-12-07T16:02:22;16.58;;;9.57;;
25531;SDS011;13429;48.816;9.118;2022-12-07T16:04:49;17.67;;;9.77;;
25531;SDS011;13429;48.816;9.118;2022-12-07T16:07:15;18.40;;;10.95;;
25531;SDS011;13429;48.816;9.118;2022-12-07T16:09:42;18.48;;;9.95;;
25531;SDS011;13429;48.816;9.118;2022-12-07T16:12:08;16.23;;;9.55;;
25531;SDS011;13429;48.816;9.118;2022-12-07T16:14:34;20.80;;;11.38;;
25531;SDS011;13429;48.816;9.118;2022-12-07T16:17:00;22.30;;;11.40;;
25531;SDS011;13429;48.816;9.118;2022-12-07T16:19:26;18.25;;;10.60;;
25531;SDS011;13429;48.816;9.118;2022-12-07T16:21:52;22.58;;;11.55;;
25531;SDS011;13429;48.816;9.118;2022-12-07T16:24:18;21.92;;;12.45;;
25531;SDS011;13429;48.816;9.118;2022-12-07T16:26:45;19.05;;;11.13;;
25531;SDS011;13429;48.816;9.118;2022-12-07T16:29:11;22.83;;;10.50;;
25531;SDS011;13429;48.816;9.118;2022-12-07T16:31:38;19.05;;;11.18;;
25531;SDS011;13429;48.816;9.118;2022-12-07T16:34:06;21.00;;;11.55;;
25531;SDS011;13429;48.816;9.118;2022-12-07T16:36:32;19.98;;;11.15;;
25531;SDS011;13429;48.816;9.118;2022-12-07T16:38:59;19.88;;;10.95;;
25531;SDS011;13429;48.816;9.118;2022-12-07T16:41:25;20.52;;;11.55;;
25531;SDS011;13429;48.816;9.118;2022-12-07T16:43:51;20.02;;;12.07;;
25531;SDS011;13429;48.816;9.118;2022-12-07T16:46:17;18.92;;;11.02;;
25531;SDS011;13429;48.816;9.118;2022-12-07T16:48:43;18.17;;;10.52;;
25531;SDS011;13429;48.816;9.118;2022-12-07T16:51:10;19.00;;;10.90;;
25531;SDS011;13429;48.816;9.118;2022-12-07T16:53:37;22.25;;;11.13;;